createdAt,value
2023-01-18T04:45:20.018Z,486.70
2023-01-18T04:47:46.994Z,493.15
2023-01-18T04:50:13.762Z,491.65
2023-01-18T04:52:40.614Z,486.08
2023-01-18T04:55:08.296Z,490.23
2023-01-18T04:57:34.955Z,492.77
2023-01-18T05:00:02.207Z,500.47
2023-01-18T05:02:29.005Z,481.40
2023-01-18T05:04:55.813Z,491.92
2023-01-18T05:07:25.235Z,494.42
2023-01-18T05:09:52.153Z,501.90
2023-01-18T05:12:18.950Z,483.88
2023-01-18T05:14:45.627Z,486.52
2023-01-18T05:17:12.299Z,482.70
2023-01-18T05:19:40.390Z,481.33
2023-01-18T05:22:16.059Z,473.20
2023-01-18T05:24:42.741Z,476.48
2023-01-18T05:27:09.424Z,475.43
2023-01-18T05:29:36.166Z,477.45
2023-01-18T05:32:02.847Z,479.80
2023-01-18T05:34:29.636Z,479.13
2023-01-18T05:36:56.293Z,479.55
2023-01-18T05:39:23.663Z,484.02
2023-01-18T05:41:50.519Z,478.42
2023-01-18T05:44:17.211Z,490.20
2023-01-18T05:46:43.928Z,482.25
2023-01-18T05:49:10.587Z,485.90
2023-01-18T05:51:37.310Z,488.77
2023-01-18T05:54:04.009Z,492.02
2023-01-18T05:56:30.716Z,494.07
2023-01-18T05:58:57.400Z,495.25
2023-01-18T06:01:24.127Z,492.30
2023-01-18T06:03:50.880Z,490.33
2023-01-18T06:06:17.660Z,492.02
2023-01-18T06:08:44.407Z,487.88
2023-01-18T06:11:11.209Z,482.30
2023-01-18T06:13:37.926Z,478.20
2023-01-18T06:16:05.015Z,486.43
2023-01-18T06:18:32.920Z,481.80
2023-01-18T06:21:01.917Z,491.15
2023-01-18T06:23:30.266Z,477.25
2023-01-18T06:25:57.458Z,477.93
2023-01-18T06:28:24.339Z,486.65
2023-01-18T06:30:55.329Z,477.15
2023-01-18T06:33:25.462Z,483.30
2023-01-18T06:35:52.464Z,484.30
2023-01-18T06:38:19.198Z,487.42
2023-01-18T06:40:45.896Z,479.83
2023-01-18T06:43:14.163Z,477.45
2023-01-18T06:45:41.407Z,484.27
2023-01-18T06:48:08.371Z,490.13
2023-01-18T06:50:35.095Z,489.52
2023-01-18T06:53:01.906Z,480.58
2023-01-18T06:55:28.564Z,483.58
2023-01-18T06:57:56.994Z,481.08
2023-01-18T07:00:24.011Z,485.65
2023-01-18T07:02:53.475Z,480.83
2023-01-18T07:05:20.261Z,470.98
2023-01-18T07:07:46.975Z,476.98
2023-01-18T07:10:16.165Z,477.27
2023-01-18T07:12:46.256Z,481.75
2023-01-18T07:15:21.632Z,482.20
2023-01-18T07:17:50.445Z,483.70
2023-01-18T07:20:17.657Z,488.90
2023-01-18T07:22:44.438Z,479.98
2023-01-18T07:25:13.878Z,480.83
2023-01-18T07:27:43.476Z,487.42
2023-01-18T07:30:12.418Z,496.13
2023-01-18T07:32:39.931Z,495.47
2023-01-18T07:35:07.356Z,497.40
2023-01-18T07:37:34.571Z,500.92
2023-01-18T07:40:01.482Z,504.58
2023-01-18T07:42:28.979Z,500.90
2023-01-18T07:44:55.686Z,516.63
2023-01-18T07:47:22.395Z,509.30
2023-01-18T07:49:49.079Z,510.65
2023-01-18T07:52:15.954Z,522.22
2023-01-18T07:54:42.667Z,518.35
2023-01-18T07:57:09.391Z,516.15
2023-01-18T07:59:36.066Z,525.40
2023-01-18T08:02:04.161Z,526.95
2023-01-18T08:04:30.936Z,520.88
2023-01-18T08:06:58.129Z,519.53
2023-01-18T08:09:24.787Z,516.95
2023-01-18T08:11:51.485Z,523.20
2023-01-18T08:14:18.376Z,522.35
2023-01-18T08:16:45.132Z,509.95
2023-01-18T08:19:11.905Z,513.60
2023-01-18T08:21:38.627Z,519.92
2023-01-18T08:24:05.535Z,516.35
2023-01-18T08:26:34.092Z,519.87
2023-01-18T08:29:01.681Z,525.55
2023-01-18T08:31:28.483Z,523.33
2023-01-18T08:33:55.312Z,526.17
2023-01-18T08:36:24.465Z,532.78
2023-01-18T08:38:53.540Z,534.75
2023-01-18T08:41:20.748Z,542.70
2023-01-18T08:43:53.042Z,555.92
2023-01-18T08:46:20.173Z,569.15
2023-01-18T08:48:54.901Z,579.80
2023-01-18T08:51:23.060Z,589.63
2023-01-18T08:53:54.574Z,608.83
2023-01-18T08:56:21.426Z,634.50
2023-01-18T08:58:48.511Z,641.10
2023-01-18T09:01:15.460Z,651.33
2023-01-18T09:03:42.571Z,653.17
2023-01-18T09:06:12.400Z,654.70
2023-01-18T09:08:39.552Z,653.35
2023-01-18T09:11:09.705Z,658.40
2023-01-18T09:13:39.633Z,651.22
2023-01-18T09:16:11.098Z,649.55
2023-01-18T09:18:38.684Z,653.03
2023-01-18T09:21:07.906Z,646.27
2023-01-18T09:23:35.811Z,649.65
2023-01-18T09:26:05.575Z,633.25
2023-01-18T09:28:33.413Z,641.47
2023-01-18T09:31:02.460Z,633.35
2023-01-18T09:33:37.491Z,638.72
2023-01-18T09:36:07.844Z,642.38
2023-01-18T09:38:36.468Z,653.33
2023-01-18T09:41:06.549Z,662.17
2023-01-18T09:43:40.170Z,662.90
2023-01-18T09:46:25.695Z,681.67
2023-01-18T09:49:01.970Z,702.47
2023-01-18T09:51:33.984Z,697.20
2023-01-18T09:54:52.081Z,697.58
2023-01-18T09:57:44.645Z,703.73
2023-01-18T10:00:33.488Z,741.53
2023-01-18T10:03:08.172Z,755.28
2023-01-18T10:05:45.672Z,784.10
2023-01-18T10:08:20.846Z,795.88
2023-01-18T10:10:54.120Z,803.37
2023-01-18T10:13:56.855Z,814.38
2023-01-18T10:16:23.721Z,832.53
2023-01-18T10:18:53.477Z,847.37
2023-01-18T10:21:29.691Z,839.65
2023-01-18T10:24:02.192Z,839.63
2023-01-18T10:26:34.941Z,841.97
2023-01-18T10:29:15.656Z,825.63
2023-01-18T10:32:14.296Z,833.38
2023-01-18T10:34:51.467Z,822.35
2023-01-18T10:37:38.798Z,816.08
2023-01-18T10:40:09.205Z,811.20
2023-01-18T10:42:48.755Z,813.88
2023-01-18T10:45:21.592Z,814.30
2023-01-18T10:47:53.644Z,805.60
2023-01-18T10:50:43.275Z,802.42
2023-01-18T10:53:31.495Z,808.97
2023-01-18T10:56:13.348Z,797.50
2023-01-18T10:58:50.351Z,792.00
2023-01-18T11:01:27.699Z,784.45
2023-01-18T11:04:05.781Z,774.63
2023-01-18T11:06:55.892Z,767.08
2023-01-18T11:09:34.845Z,733.60
2023-01-18T11:12:38.797Z,726.15
2023-01-18T11:15:14.861Z,722.22
2023-01-18T11:17:46.771Z,720.25
2023-01-18T11:20:20.060Z,708.92
2023-01-18T11:23:01.838Z,721.60
2023-01-18T11:25:57.826Z,714.85
2023-01-18T11:28:44.862Z,703.00
2023-01-18T11:31:14.687Z,706.42
2023-01-18T11:33:53.136Z,704.40
2023-01-18T11:36:33.047Z,703.97
2023-01-18T11:39:19.763Z,708.72
2023-01-18T11:41:46.599Z,690.15
2023-01-18T11:44:22.622Z,696.22
2023-01-18T11:46:57.965Z,686.50
2023-01-18T11:49:27.574Z,689.03
2023-01-18T11:52:02.213Z,678.30
2023-01-18T11:54:38.543Z,679.72
2023-01-18T11:57:07.490Z,669.03
2023-01-18T11:59:36.968Z,656.75
2023-01-18T12:02:18.399Z,661.72
2023-01-18T12:05:12.872Z,663.75
2023-01-18T12:08:10.719Z,666.92
2023-01-18T12:10:50.815Z,665.58
2023-01-18T12:13:26.439Z,656.70
2023-01-18T12:16:17.128Z,655.83
2023-01-18T12:19:16.004Z,639.70
2023-01-18T12:22:01.345Z,631.53
2023-01-18T12:24:45.148Z,637.33
2023-01-18T12:27:34.063Z,630.45
2023-01-18T12:30:26.991Z,633.60
2023-01-18T12:33:02.113Z,638.97
2023-01-18T12:35:49.686Z,633.60
2023-01-18T12:38:23.143Z,637.30
2023-01-18T12:41:11.939Z,647.40
2023-01-18T12:43:59.129Z,646.08
2023-01-18T12:46:43.966Z,636.15
2023-01-18T12:49:21.909Z,632.13
2023-01-18T12:52:17.188Z,625.25
2023-01-18T12:54:48.900Z,620.53
2023-01-18T12:57:17.242Z,613.88
2023-01-18T12:59:47.032Z,617.72
2023-01-18T13:02:22.891Z,621.33
2023-01-18T13:05:06.034Z,625.40
2023-01-18T13:08:04.509Z,618.37
2023-01-18T13:10:31.321Z,624.28
2023-01-18T13:12:58.739Z,621.85
2023-01-18T13:15:32.813Z,634.17
2023-01-18T13:18:27.326Z,629.60
2023-01-18T13:21:21.857Z,638.85
2023-01-18T13:23:53.801Z,632.88
2023-01-18T13:26:28.520Z,630.00
2023-01-18T13:29:07.471Z,640.83
2023-01-18T13:31:34.319Z,639.83
2023-01-18T13:34:01.117Z,637.13
2023-01-18T13:36:27.816Z,639.38
2023-01-18T13:38:57.915Z,638.65
2023-01-18T13:41:28.130Z,638.47
2023-01-18T13:44:25.962Z,641.15
2023-01-18T13:46:59.245Z,646.00
2023-01-18T13:49:44.933Z,641.25
2023-01-18T13:52:31.430Z,644.88
2023-01-18T13:55:02.198Z,636.25
2023-01-18T13:57:31.504Z,647.13
2023-01-18T14:00:00.019Z,634.85
2023-01-18T14:02:32.692Z,644.85
2023-01-18T14:05:08.507Z,632.93
2023-01-18T14:07:43.896Z,631.22
2023-01-18T14:10:37.873Z,627.67
2023-01-18T14:13:07.929Z,630.30
2023-01-18T14:15:43.780Z,624.45
2023-01-18T14:18:29.247Z,621.90
2023-01-18T14:21:16.830Z,627.10
2023-01-18T14:23:49.313Z,623.60
2023-01-18T14:26:18.139Z,618.60
2023-01-18T14:28:53.790Z,614.75
2023-01-18T14:31:27.497Z,604.67
2023-01-18T14:33:54.258Z,599.42
2023-01-18T14:36:26.734Z,591.85
2023-01-18T14:39:13.273Z,589.92
2023-01-18T14:41:43.385Z,584.95
2023-01-18T14:44:23.896Z,581.65
2023-01-18T14:46:56.300Z,566.95
2023-01-18T14:49:34.963Z,565.33
2023-01-18T14:52:02.409Z,583.83
2023-01-18T14:54:29.302Z,575.60
2023-01-18T14:57:05.076Z,572.75
2023-01-18T14:59:33.282Z,574.55
2023-01-18T15:02:15.640Z,576.00
2023-01-18T15:04:45.611Z,572.97
2023-01-18T15:07:33.720Z,546.85
2023-01-18T15:10:00.629Z,550.27
2023-01-18T15:12:31.404Z,545.95
2023-01-18T15:15:06.511Z,547.75
2023-01-18T15:17:35.828Z,548.08
2023-01-18T15:20:11.770Z,549.22
2023-01-18T15:22:40.504Z,545.38
2023-01-18T15:25:18.705Z,542.00
2023-01-18T15:27:52.625Z,551.38
2023-01-18T15:30:23.240Z,543.45
2023-01-18T15:32:55.400Z,545.20
2023-01-18T15:35:25.409Z,544.17
2023-01-18T15:37:52.313Z,540.40
2023-01-18T15:40:18.954Z,552.50
2023-01-18T15:42:51.901Z,551.13
2023-01-18T15:45:25.634Z,545.08
2023-01-18T15:47:54.959Z,545.65
2023-01-18T15:50:23.991Z,541.22
2023-01-18T15:53:06.345Z,543.50
2023-01-18T15:55:53.778Z,544.53
2023-01-18T15:58:25.369Z,546.88
2023-01-18T16:01:04.311Z,546.60
2023-01-18T16:03:40.773Z,544.55
2023-01-18T16:06:16.855Z,538.03
2023-01-18T16:09:13.666Z,542.70
2023-01-18T16:11:57.569Z,538.45
2023-01-18T16:14:35.780Z,551.17
2023-01-18T16:17:12.839Z,543.40
2023-01-18T16:19:43.735Z,545.13
2023-01-18T16:22:35.773Z,545.15
2023-01-18T16:25:08.971Z,552.70
2023-01-18T16:27:53.596Z,543.90
2023-01-18T16:30:40.717Z,551.55
2023-01-18T16:33:15.669Z,544.38
2023-01-18T16:35:42.824Z,546.55
2023-01-18T16:38:14.624Z,540.10
2023-01-18T16:40:44.174Z,549.17
2023-01-18T16:43:31.863Z,545.58
2023-01-18T16:46:00.920Z,546.38
2023-01-18T16:48:29.431Z,542.20
2023-01-18T16:50:56.560Z,543.58
2023-01-18T16:53:23.523Z,542.78
2023-01-18T16:55:50.296Z,537.28
2023-01-18T16:58:21.481Z,544.28
2023-01-18T17:01:10.732Z,548.15
2023-01-18T17:03:37.527Z,545.80
2023-01-18T17:06:04.540Z,539.28
2023-01-18T17:08:31.189Z,539.60
2023-01-18T17:10:57.909Z,538.40
2023-01-18T17:13:25.277Z,538.15
2023-01-18T17:15:53.138Z,538.55
2023-01-18T17:18:25.607Z,534.38
2023-01-18T17:20:53.597Z,542.47
2023-01-18T17:23:20.891Z,529.92
2023-01-18T17:25:47.998Z,539.60
2023-01-18T17:28:17.704Z,528.15
2023-01-18T17:30:47.395Z,532.95
2023-01-18T17:33:23.073Z,538.38
2023-01-18T17:35:50.898Z,538.58
2023-01-18T17:38:24.468Z,531.47
2023-01-18T17:40:51.948Z,528.78
2023-01-18T17:43:32.112Z,535.47
2023-01-18T17:46:03.345Z,541.05
2023-01-18T17:48:30.082Z,531.25
2023-01-18T17:50:56.798Z,533.23
2023-01-18T17:53:23.417Z,537.33
2023-01-18T17:55:50.352Z,532.08
2023-01-18T17:58:17.108Z,520.33
2023-01-18T18:00:44.722Z,518.22
2023-01-18T18:03:11.392Z,509.70
2023-01-18T18:05:38.221Z,495.77
2023-01-18T18:08:05.131Z,501.77
2023-01-18T18:10:31.836Z,511.42
2023-01-18T18:12:59.620Z,490.85
2023-01-18T18:15:26.599Z,498.88
2023-01-18T18:17:53.406Z,496.38
2023-01-18T18:20:22.137Z,497.98
2023-01-18T18:22:49.600Z,495.75
2023-01-18T18:25:16.365Z,494.30
2023-01-18T18:27:45.696Z,478.60
2023-01-18T18:30:13.380Z,495.38
2023-01-18T18:32:40.316Z,485.63
2023-01-18T18:35:23.092Z,478.38
2023-01-18T18:37:52.011Z,483.90
2023-01-18T18:40:19.259Z,473.27
2023-01-18T18:43:00.713Z,481.42
2023-01-18T18:45:27.741Z,476.35
2023-01-18T18:47:54.403Z,484.10
2023-01-18T18:50:21.085Z,476.77
2023-01-18T18:52:47.887Z,476.15
2023-01-18T18:55:14.815Z,478.17
2023-01-18T18:57:41.592Z,475.80
2023-01-18T19:00:08.984Z,478.45
2023-01-18T19:02:35.803Z,480.42
2023-01-18T19:05:02.422Z,472.55
2023-01-18T19:07:29.398Z,471.48
2023-01-18T19:09:56.021Z,467.95
2023-01-18T19:12:22.700Z,461.23
2023-01-18T19:14:49.300Z,450.08
2023-01-18T19:17:29.016Z,458.87
2023-01-18T19:19:56.836Z,460.85
2023-01-18T19:22:23.561Z,466.10
2023-01-18T19:24:50.165Z,469.50
2023-01-18T19:27:16.873Z,462.90
2023-01-18T19:29:43.944Z,453.10
2023-01-18T19:32:10.622Z,444.98
2023-01-18T19:34:38.396Z,442.92
2023-01-18T19:37:05.761Z,443.98
2023-01-18T19:39:34.670Z,446.73
2023-01-18T19:42:02.020Z,438.42
2023-01-18T19:44:28.872Z,429.13
2023-01-18T19:46:56.749Z,439.63
2023-01-18T19:49:25.479Z,429.98
2023-01-18T19:51:52.998Z,432.85
2023-01-18T19:54:19.896Z,424.50
2023-01-18T19:56:46.609Z,426.55
2023-01-18T19:59:14.901Z,429.05
2023-01-18T20:01:41.641Z,426.05
2023-01-18T20:04:08.752Z,427.50
2023-01-18T20:06:39.654Z,430.65
2023-01-18T20:09:17.760Z,441.05
2023-01-18T20:11:45.167Z,439.90
2023-01-18T20:14:11.940Z,442.77
2023-01-18T20:16:38.993Z,446.80
2023-01-18T20:19:05.673Z,451.60
2023-01-18T20:21:32.285Z,450.90
2023-01-18T20:23:59.147Z,443.70
2023-01-18T20:26:35.787Z,447.75
2023-01-18T20:29:07.277Z,433.30
2023-01-18T20:31:38.829Z,427.58
2023-01-18T20:34:06.541Z,434.23
2023-01-18T20:36:34.888Z,433.52
2023-01-18T20:39:02.260Z,437.90
2023-01-18T20:41:28.969Z,435.73
2023-01-18T20:43:55.726Z,426.23
2023-01-18T20:46:22.372Z,438.73
2023-01-18T20:48:49.538Z,436.55
2023-01-18T20:51:17.876Z,431.20
2023-01-18T20:53:44.711Z,433.02
2023-01-18T20:56:27.829Z,440.92
2023-01-18T20:58:56.123Z,439.90
2023-01-18T21:01:22.861Z,447.55
2023-01-18T21:03:54.873Z,455.42
2023-01-18T21:06:21.834Z,457.00
2023-01-18T21:08:51.060Z,458.63
2023-01-18T21:11:17.678Z,452.23
2023-01-18T21:13:44.696Z,457.67
2023-01-18T21:16:11.420Z,464.02
2023-01-18T21:18:39.372Z,450.25
2023-01-18T21:21:06.350Z,457.83
2023-01-18T21:23:39.149Z,447.60
2023-01-18T21:26:08.413Z,449.83
2023-01-18T21:28:35.123Z,453.60
2023-01-18T21:31:02.289Z,442.45
2023-01-18T21:33:28.987Z,447.08
2023-01-18T21:35:55.724Z,447.20
2023-01-18T21:38:23.199Z,450.48
2023-01-18T21:40:49.913Z,450.05
2023-01-18T21:43:37.544Z,463.20
2023-01-18T21:46:10.648Z,457.75
2023-01-18T21:48:37.339Z,455.77
2023-01-18T21:51:24.140Z,453.98
2023-01-18T21:54:10.025Z,456.35
2023-01-18T21:56:37.271Z,455.83
2023-01-18T21:59:04.096Z,445.48
2023-01-18T22:01:37.858Z,458.60
2023-01-18T22:04:26.116Z,451.95
2023-01-18T22:06:53.950Z,454.17
2023-01-18T22:09:22.399Z,459.13
2023-01-18T22:11:49.122Z,448.27
2023-01-18T22:14:16.017Z,453.25
2023-01-18T22:16:42.859Z,451.83
2023-01-18T22:19:11.363Z,448.17
2023-01-18T22:21:38.027Z,443.88
2023-01-18T22:24:05.084Z,446.17
2023-01-18T22:26:32.058Z,448.90
2023-01-18T22:28:59.211Z,445.60
2023-01-18T22:31:26.348Z,446.50
2023-01-18T22:33:53.037Z,449.25
2023-01-18T22:36:19.901Z,439.10
2023-01-18T22:38:46.692Z,431.08
2023-01-18T22:41:16.066Z,439.17
2023-01-18T22:43:43.944Z,429.98
2023-01-18T22:46:14.045Z,431.42
2023-01-18T22:48:41.404Z,437.58
2023-01-18T22:51:11.106Z,444.02
2023-01-18T22:53:38.041Z,443.33
2023-01-18T22:56:08.624Z,443.85
2023-01-18T22:58:36.074Z,453.90
2023-01-18T23:01:03.708Z,450.58
2023-01-18T23:03:31.217Z,447.33
2023-01-18T23:06:00.161Z,451.00
2023-01-18T23:08:44.552Z,449.88
2023-01-18T23:11:13.907Z,456.83
2023-01-18T23:13:42.449Z,452.53
2023-01-18T23:16:32.863Z,445.65
2023-01-18T23:18:59.514Z,448.38
2023-01-18T23:21:26.146Z,446.27
2023-01-18T23:23:52.764Z,448.00
2023-01-18T23:26:19.396Z,444.73
2023-01-18T23:28:46.155Z,439.02
2023-01-18T23:31:15.418Z,434.65
2023-01-18T23:33:42.524Z,434.37
2023-01-18T23:36:11.577Z,433.80
2023-01-18T23:38:57.136Z,430.65
2023-01-18T23:41:42.571Z,432.85
2023-01-18T23:44:27.940Z,429.73
2023-01-18T23:47:13.487Z,430.10
2023-01-18T23:49:59.021Z,430.42
2023-01-18T23:52:44.315Z,429.55
2023-01-18T23:55:10.998Z,426.83
2023-01-18T23:57:37.704Z,428.92
